»·PEaware :: N5328W KSNA-KSNA

N5328W :: KSNA-KSNA

FLIGHT INFORMATION

Flight Status: Arrived
Operator: Privately registered:
United States
More flights under this callsign
Pilot: Nick S. (31988)
Aircraft: Unknown
(A36)
More flights by this aircraft type
Origin: KSNA John Wayne-Orange Co
United States
Destination: KSNA John Wayne-Orange Co
United States
More flights between these airports :: More routes between these airports
Route: SLI
File this flight plan on PilotEdge
Remarks:
Altitude:
(Current/Filed)
3,000ft
Speed:
(Current/Filed)
160kts
Departed: 22-Oct-20 03:53 PM
Arrived: 22-Oct-20 04:10 PM
Distance/Time
Traveled:
0nm/0:16
Distance/Time
To Go:
Arrived

Flight Plot

Page will automatically refresh every two minutes.


Map Options




Map Legend


Flown Route
Filed Route
Departure Airport
Arrival Airport
Navaid (VOR, NDB)
Fix

Horizontal Profiles

Position Reports

Time Latitude Longitude Heading Altitude Ground
Speed
22-Oct-20 15:21 33.676161 -117.870972 183 52ft 0kts
22-Oct-20 15:22 33.676161 -117.870972 183 52ft 0kts
22-Oct-20 15:23 33.676161 -117.870972 183 52ft 0kts
22-Oct-20 15:24 33.676161 -117.870972 183 52ft 0kts
22-Oct-20 15:25 33.676161 -117.870972 183 52ft 0kts
22-Oct-20 15:26 33.676161 -117.870972 183 52ft 0kts
22-Oct-20 15:27 33.676161 -117.870972 183 52ft 0kts
22-Oct-20 15:28 33.676161 -117.870972 183 52ft 0kts
22-Oct-20 15:29 33.676161 -117.870972 183 52ft 0kts
22-Oct-20 15:30 33.676161 -117.870972 183 52ft 0kts
22-Oct-20 15:31 33.676161 -117.870972 183 52ft 0kts
22-Oct-20 15:32 33.676161 -117.870972 183 52ft 0kts
22-Oct-20 15:33 33.676161 -117.870972 183 52ft 0kts
22-Oct-20 15:34 33.676161 -117.870972 183 52ft 0kts
22-Oct-20 15:35 33.676161 -117.870972 183 52ft 0kts
22-Oct-20 15:36 33.676161 -117.870972 183 52ft 0kts
22-Oct-20 15:37 33.676161 -117.870972 183 52ft 0kts
22-Oct-20 15:38 33.676161 -117.870972 183 52ft 0kts
22-Oct-20 15:39 33.676161 -117.870972 183 52ft 0kts
22-Oct-20 15:41 33.676161 -117.870972 183 52ft 0kts
22-Oct-20 15:42 33.676161 -117.870973 183 52ft 0kts
22-Oct-20 15:43 33.676162 -117.870973 183 52ft 0kts
22-Oct-20 15:44 33.676162 -117.870972 183 52ft 0kts
22-Oct-20 15:45 33.676032 -117.870882 144 52ft 0kts
22-Oct-20 15:46 33.676568 -117.869813 28 53ft 16kts
22-Oct-20 15:47 33.681109 -117.867111 36 43ft 1kts
22-Oct-20 15:48 33.681212 -117.866685 102 43ft 0kts
22-Oct-20 15:49 33.681212 -117.866685 102 43ft 0kts
22-Oct-20 15:50 33.681212 -117.866685 102 43ft 0kts
22-Oct-20 15:51 33.681212 -117.866685 102 43ft 0kts
22-Oct-20 15:52 33.681154 -117.866381 106 43ft 8kts
22-Oct-20 15:53 33.668088 -117.875493 234 391ft 98kts
22-Oct-20 15:54 33.655015 -117.909916 242 1141ft 125kts
22-Oct-20 15:54 33.642173 -117.942612 268 1718ft 133kts
22-Oct-20 15:56 33.675114 -117.944797 32 2547ft 136kts
22-Oct-20 15:57 33.709751 -117.923627 23 3037ft 149kts
22-Oct-20 15:58 33.749858 -117.901959 23 3052ft 163kts
22-Oct-20 15:59 33.791632 -117.879393 23 3054ft 164kts
22-Oct-20 15:59 33.826176 -117.860720 23 3055ft 162kts
22-Oct-20 16:01 33.874301 -117.834654 23 3055ft 162kts
22-Oct-20 16:01 33.903111 -117.808750 80 3058ft 163kts
22-Oct-20 16:03 33.881209 -117.753500 159 3057ft 161kts
22-Oct-20 16:03 33.846348 -117.760498 209 3054ft 153kts
22-Oct-20 16:05 33.804362 -117.787313 208 2734ft 128kts
22-Oct-20 16:05 33.779167 -117.803299 208 2204ft 120kts
22-Oct-20 16:06 33.749518 -117.822099 208 1557ft 119kts
22-Oct-20 16:07 33.720221 -117.840700 208 938ft 118kts
22-Oct-20 16:08 33.691661 -117.858673 207 314ft 104kts
22-Oct-20 16:09 33.675834 -117.869470 293 55ft 16kts
22-Oct-20 16:10 33.676022 -117.869798 324 55ft 0kts
22-Oct-20 16:11 33.676204 -117.871040 98 52ft 0kts
22-Oct-20 16:12 33.676204 -117.871041 98 51ft 0kts

Navigation Log

Ident Type
Flight plan parsing failed, navigation log unavailable